Time;durP1;ratioP1;P1;durP2;ratioP2;P2;SDS_P1;SDS_P2;PMS_P1;PMS_P2;Temp;Humidity;BMP_temperature;BMP_pressure;BME280_temperature;BME280_humidity;BME280_pressure;Samples;Min_cycle;Max_cycle;Signal;HPM_P1;HPM_P2
2021/05/29 08:09:27;;;;;;;11.40;4.70;;;17.30;99.90;;;;;;6199765;22;19923;-82
2021/05/29 08:12:04;;;;;;;;;;;17.40;99.90;;;;;;6228969;23;20052;-79
2021/05/29 08:14:40;;;;;;;11.95;5.20;;;17.20;99.90;;;;;;6252786;23;19963;-81
2021/05/29 08:17:07;;;;;;;7.68;4.82;;;16.90;99.90;;;;;;6254294;23;20040;-82
2021/05/29 08:19:35;;;;;;;10.13;4.43;;;16.40;99.90;;;;;;6254069;23;20064;-82
2021/05/29 08:22:02;;;;;;;8.52;4.65;;;16.00;99.90;;;;;;6255803;22;20051;-85
2021/05/29 08:24:31;;;;;;;10.80;4.90;;;15.80;99.90;;;;;;6255091;23;20040;-81
2021/05/29 08:27:00;;;;;;;13.75;4.47;;;15.50;99.90;;;;;;6255904;23;20051;-81
2021/05/29 08:29:27;;;;;;;;;;;15.40;99.90;;;;;;6256094;23;20322;-83
2021/05/29 08:31:54;;;;;;;12.07;4.53;;;15.50;99.90;;;;;;6256395;23;19960;-80
2021/05/29 08:34:21;;;;;;;13.45;4.25;;;15.60;99.90;;;;;;6256415;23;20036;-80
2021/05/29 08:36:52;;;;;;;10.77;5.15;;;15.70;99.90;;;;;;6258339;23;20225;-82
2021/05/29 08:39:20;;;;;;;12.20;5.65;;;15.90;99.90;;;;;;6254490;23;20047;-79
2021/05/29 08:41:54;;;;;;;11.50;4.50;;;16.20;99.90;;;;;;6255014;23;20068;-80
2021/05/29 08:44:21;;;;;;;8.88;4.10;;;16.40;99.90;;;;;;6253730;23;20262;-81
2021/05/29 08:46:49;;;;;;;11.13;4.90;;;16.80;99.90;;;;;;6255315;22;20008;-80
2021/05/29 08:49:17;;;;;;;9.23;3.70;;;17.10;99.90;;;;;;6229141;23;20011;-82
2021/05/29 08:51:47;;;;;;;10.73;4.10;;;17.30;99.90;;;;;;6256105;22;20039;-88
2021/05/29 08:54:14;;;;;;;9.07;3.92;;;17.30;98.60;;;;;;6255889;23;20044;-88
2021/05/29 08:56:41;;;;;;;9.68;4.30;;;17.00;98.60;;;;;;6256915;23;20012;-85
2021/05/29 08:59:11;;;;;;;18.48;5.60;;;16.90;99.50;;;;;;6266994;23;20016;-85
2021/05/29 09:01:40;;;;;;;11.15;4.28;;;17.00;99.50;;;;;;6268959;23;20008;-87
2021/05/29 09:04:08;;;;;;;10.68;4.53;;;16.70;98.50;;;;;;6239290;23;20044;-90
2021/05/29 09:06:44;;;;;;;8.25;4.38;;;17.00;99.30;;;;;;6236948;23;20020;-88
2021/05/29 09:09:14;;;;;;;11.43;4.63;;;17.10;98.70;;;;;;6231630;23;20052;-86
2021/05/29 09:11:46;;;;;;;12.52;4.20;;;16.90;98.00;;;;;;6229515;23;20048;-85
2021/05/29 09:14:43;;;;;;;10.20;4.28;;;16.70;98.60;;;;;;6259466;23;20008;-85
2021/05/29 09:17:14;;;;;;;;;;;16.70;98.50;;;;;;6233067;23;20067;-87
2021/05/29 09:19:56;;;;;;;8.40;4.10;;;16.70;98.90;;;;;;6258399;23;19947;-86
2021/05/29 09:22:25;;;;;;;11.90;4.88;;;16.80;99.20;;;;;;6256912;23;20352;-85
2021/05/29 09:25:01;;;;;;;10.68;4.03;;;16.90;98.70;;;;;;6258489;23;20052;-87
2021/05/29 09:27:29;;;;;;;8.55;4.18;;;17.00;97.30;;;;;;6253039;22;20280;-81
2021/05/29 09:30:01;;;;;;;7.95;4.03;;;17.50;97.10;;;;;;6261569;22;20044;-78
2021/05/29 09:32:32;;;;;;;;;;;17.80;95.90;;;;;;6266104;22;20041;-78
2021/05/29 09:35:04;;;;;;;8.82;4.15;;;17.90;94.20;;;;;;6234696;23;19924;-79
2021/05/29 09:37:41;;;;;;;8.43;4.05;;;17.80;93.80;;;;;;6264183;23;20023;-79
2021/05/29 09:40:33;;;;;;;7.00;3.67;;;17.70;94.10;;;;;;6210975;22;20032;-77
2021/05/29 09:43:06;;;;;;;10.77;4.43;;;17.90;93.50;;;;;;6212736;23;20011;-77
2021/05/29 09:45:37;;;;;;;9.95;4.25;;;18.00;93.10;;;;;;6215344;23;20016;-78
2021/05/29 09:48:12;;;;;;;9.65;3.92;;;17.90;93.80;;;;;;6178775;23;20383;-78
2021/05/29 09:51:12;;;;;;;7.05;3.53;;;17.80;93.20;;;;;;6175746;23;20036;-78
2021/05/29 09:53:42;;;;;;;7.80;3.88;;;17.70;93.40;;;;;;6202532;23;20213;-78
2021/05/29 09:56:25;;;;;;;11.15;4.13;;;17.60;93.80;;;;;;6176917;23;20041;-79
2021/05/29 09:58:58;;;;;;;7.22;3.50;;;17.30;94.50;;;;;;6179511;23;20027;-78
2021/05/29 10:01:42;;;;;;;9.35;4.47;;;17.20;93.80;;;;;;6180773;23;20044;-77
2021/05/29 10:04:14;;;;;;;8.18;4.15;;;17.50;93.70;;;;;;6204795;23;20040;-79
2021/05/29 10:06:54;;;;;;;7.63;4.13;;;18.00;93.30;;;;;;6246335;23;20017;-77
2021/05/29 10:09:23;;;;;;;6.15;3.55;;;18.50;91.40;;;;;;6215836;23;20016;-79
2021/05/29 10:11:52;;;;;;;;;;;18.90;88.20;;;;;;6218187;23;20012;-79
2021/05/29 10:14:20;;;;;;;6.10;3.65;;;18.90;83.20;;;;;;6187468;23;19931;-79
2021/05/29 10:16:49;;;;;;;7.80;3.75;;;19.00;82.00;;;;;;6175588;23;20045;-77
2021/05/29 10:19:20;;;;;;;10.57;3.97;;;19.40;78.70;;;;;;6200196;23;20044;-78
2021/05/29 10:21:50;;;;;;;7.18;3.85;;;19.90;75.20;;;;;;6177152;23;20033;-78
2021/05/29 10:24:18;;;;;;;9.30;4.22;;;19.60;73.10;;;;;;6227828;23;20036;-78
2021/05/29 10:26:46;;;;;;;;;;;19.20;75.10;;;;;;6200220;23;20081;-79
2021/05/29 10:29:15;;;;;;;8.25;3.60;;;20.10;73.80;;;;;;6199409;23;19947;-79
2021/05/29 10:31:42;;;;;;;;;;;21.00;65.30;;;;;;6227942;23;20044;-77
2021/05/29 10:34:11;;;;;;;8.63;3.13;;;20.80;63.40;;;;;;6199766;23;19952;-78
2021/05/29 10:36:41;;;;;;;7.47;2.92;;;20.40;63.00;;;;;;6199724;23;20040;-77
2021/05/29 10:39:11;;;;;;;7.40;3.17;;;20.80;65.30;;;;;;6149763;23;20044;-78
2021/05/29 10:41:56;;;;;;;7.68;3.20;;;22.20;61.50;;;;;;6225462;23;20044;-79
2021/05/29 10:44:36;;;;;;;6.28;3.13;;;23.60;56.20;;;;;;6199938;23;20044;-80
2021/05/29 10:47:05;;;;;;;6.00;2.60;;;24.60;52.70;;;;;;6197434;23;20041;-79
2021/05/29 10:49:57;;;;;;;8.15;3.13;;;25.50;48.30;;;;;;6199687;23;20368;-80
2021/05/29 10:52:52;;;;;;;5.95;2.50;;;26.00;45.90;;;;;;6175982;23;20029;-78
2021/05/29 10:55:24;;;;;;;4.40;2.47;;;25.60;45.30;;;;;;6200926;23;20033;-79
2021/05/29 10:58:02;;;;;;;6.05;2.47;;;24.50;47.60;;;;;;6199603;23;20084;-79
2021/05/29 11:00:51;;;;;;;5.78;2.83;;;24.50;49.20;;;;;;6175814;23;20041;-79
2021/05/29 11:03:24;;;;;;;4.65;2.60;;;25.40;46.10;;;;;;6227147;23;20041;-79
2021/05/29 11:05:54;;;;;;;5.40;2.60;;;26.30;45.00;;;;;;6227296;23;20044;-79
2021/05/29 11:08:47;;;;;;;8.77;2.78;;;27.40;43.20;;;;;;6175253;23;20040;-79
2021/05/29 11:11:57;;;;;;;6.45;2.97;;;28.30;41.90;;;;;;6199950;23;20055;-80
2021/05/29 11:14:29;;;;;;;6.75;3.15;;;28.70;40.70;;;;;;6154258;23;20036;-79
2021/05/29 11:17:21;;;;;;;6.20;3.35;;;26.90;41.80;;;;;;6226320;23;20044;-78
2021/05/29 11:20:10;;;;;;;5.72;3.78;;;25.60;44.30;;;;;;6204490;23;20040;-79
2021/05/29 11:22:43;;;;;;;8.88;3.90;;;24.80;45.90;;;;;;6200108;23;20049;-77
2021/05/29 11:25:15;;;;;;;7.95;3.67;;;23.90;48.40;;;;;;6200153;23;20053;-77
2021/05/29 11:27:46;;;;;;;7.47;3.53;;;24.00;48.30;;;;;;6223489;23;20260;-77
2021/05/29 11:30:21;;;;;;;6.20;3.75;;;23.50;49.20;;;;;;6175591;23;20045;-78
2021/05/29 11:32:57;;;;;;;8.50;4.00;;;22.70;50.50;;;;;;6198398;23;20045;-80
2021/05/29 11:35:30;;;;;;;5.43;3.08;;;23.30;49.60;;;;;;6199762;23;20264;-79
2021/05/29 11:38:05;;;;;;;7.53;3.38;;;25.10;46.60;;;;;;6199484;23;20040;-79
2021/05/29 11:40:58;;;;;;;9.80;3.75;;;26.80;44.30;;;;;;6174710;23;20411;-79
2021/05/29 11:43:40;;;;;;;6.60;2.70;;;26.70;43.30;;;;;;6176346;23;20036;-78
2021/05/29 11:46:09;;;;;;;6.53;3.17;;;27.40;42.40;;;;;;6199511;23;20045;-79
2021/05/29 11:48:38;;;;;;;5.22;2.80;;;29.00;40.50;;;;;;6225544;23;20048;-79
2021/05/29 11:51:10;;;;;;;4.65;2.35;;;30.20;38.90;;;;;;6175130;23;20244;-80
2021/05/29 11:53:45;;;;;;;6.47;3.55;;;31.10;37.70;;;;;;6199536;23;20045;-80
2021/05/29 11:56:17;;;;;;;4.05;2.40;;;31.80;36.70;;;;;;6200817;23;20041;-80
2021/05/29 11:58:53;;;;;;;3.70;2.30;;;32.90;34.60;;;;;;6198305;23;20052;-80
2021/05/29 12:01:28;;;;;;;6.85;2.40;;;32.50;34.10;;;;;;6198005;23;20048;-80
2021/05/29 12:03:59;;;;;;;4.88;2.58;;;31.70;34.70;;;;;;6174674;23;20044;-79
2021/05/29 12:06:54;;;;;;;5.15;2.47;;;30.40;34.80;;;;;;6175230;23;20343;-80
2021/05/29 12:09:23;;;;;;;5.65;2.72;;;28.70;36.70;;;;;;6226208;23;20040;-79
2021/05/29 12:11:52;;;;;;;3.95;2.30;;;28.30;37.80;;;;;;6226249;23;20008;-79
2021/05/29 12:14:21;;;;;;;6.53;2.70;;;28.00;39.10;;;;;;6199525;23;20322;-80
2021/05/29 12:16:53;;;;;;;4.10;2.45;;;28.80;37.80;;;;;;6225306;23;20048;-78
2021/05/29 12:19:35;;;;;;;3.92;1.90;;;29.70;36.90;;;;;;6197218;23;20247;-81
2021/05/29 12:22:05;;;;;;;4.00;2.25;;;30.80;35.80;;;;;;6197585;23;20325;-82
2021/05/29 12:24:42;;;;;;;5.78;2.72;;;31.50;34.10;;;;;;6199465;23;20069;-82
2021/05/29 12:27:11;;;;;;;5.82;2.28;;;31.50;33.70;;;;;;6199010;23;20032;-83
2021/05/29 12:29:40;;;;;;;4.47;2.22;;;31.70;34.40;;;;;;6199399;23;20045;-83
2021/05/29 12:32:27;;;;;;;4.82;1.95;;;32.10;33.90;;;;;;6201407;23;20356;-81
2021/05/29 12:34:55;;;;;;;4.95;2.30;;;32.60;33.30;;;;;;6202444;23;20032;-82
2021/05/29 12:37:32;;;;;;;4.55;2.75;;;33.50;32.30;;;;;;6240014;23;20020;-83
2021/05/29 12:40:11;;;;;;;5.22;2.55;;;32.80;31.90;;;;;;6232502;23;20052;-81
2021/05/29 12:42:44;;;;;;;7.70;3.20;;;31.40;32.90;;;;;;6215027;23;20012;-83
2021/05/29 12:45:18;;;;;;;5.70;2.47;;;31.10;34.00;;;;;;6181572;23;20386;-81
2021/05/29 12:47:53;;;;;;;5.68;3.13;;;31.90;34.10;;;;;;6260390;23;20237;-84
2021/05/29 12:50:26;;;;;;;5.85;3.00;;;32.70;33.50;;;;;;6231334;23;20351;-83
2021/05/29 12:53:08;;;;;;;6.22;3.30;;;33.30;33.50;;;;;;6231247;23;20012;-83
2021/05/29 12:55:39;;;;;;;4.47;2.78;;;33.80;32.80;;;;;;6206823;23;20040;-80
2021/05/29 12:58:14;;;;;;;8.63;4.57;;;33.90;33.00;;;;;;6230662;23;20046;-82
2021/05/29 13:00:51;;;;;;;5.10;3.10;;;33.20;32.20;;;;;;6258268;23;20015;-83
2021/05/29 13:09:13;;;;;;;5.07;2.55;;;30.60;35.70;;;;;;6229722;23;20036;-83
2021/05/29 13:11:43;;;;;;;8.50;3.15;;;32.60;34.00;;;;;;6205591;23;20260;-83
2021/05/29 13:14:13;;;;;;;6.43;2.78;;;33.30;32.30;;;;;;6204718;23;20036;-81
2021/05/29 13:16:52;;;;;;;8.05;3.35;;;33.30;31.70;;;;;;6230316;23;20037;-81
2021/05/29 13:19:21;;;;;;;7.45;3.80;;;32.60;32.90;;;;;;6203876;23;20044;-81
2021/05/29 13:21:58;;;;;;;8.52;3.50;;;31.40;34.80;;;;;;6229356;23;20040;-81
2021/05/29 13:24:49;;;;;;;7.18;3.80;;;29.60;36.30;;;;;;6228259;23;20044;-81
2021/05/29 13:27:20;;;;;;;6.90;4.07;;;27.80;38.70;;;;;;6255686;23;20011;-81
2021/05/29 13:29:49;;;;;;;7.53;4.05;;;26.40;39.80;;;;;;6228912;23;20040;-81
2021/05/29 13:32:19;;;;;;;7.18;3.85;;;25.80;41.40;;;;;;6253209;23;20332;-81
2021/05/29 13:34:50;;;;;;;6.45;3.42;;;25.70;41.40;;;;;;6227410;23;20346;-81
2021/05/29 13:37:17;;;;;;;;;;;25.10;42.10;;;;;;6204645;23;20016;-80
2021/05/29 13:39:47;;;;;;;6.28;3.13;;;24.80;42.50;;;;;;6224166;23;19947;-81
2021/05/29 13:42:17;;;;;;;5.88;3.15;;;25.60;41.50;;;;;;6174747;23;20044;-82
2021/05/29 13:44:46;;;;;;;5.75;3.30;;;25.80;40.00;;;;;;6174896;23;20270;-81
2021/05/29 13:47:16;;;;;;;6.35;3.45;;;25.60;40.10;;;;;;6201925;23;20389;-81
2021/05/29 13:49:44;;;;;;;5.47;2.72;;;25.90;40.20;;;;;;6174530;23;20064;-82
2021/05/29 13:52:12;;;;;;;5.88;3.05;;;27.50;38.80;;;;;;6176007;23;20044;-80
2021/05/29 13:54:41;;;;;;;7.15;5.13;;;29.20;36.40;;;;;;6199836;23;20049;-81
2021/05/29 13:57:09;;;;;;;6.20;3.45;;;30.80;35.40;;;;;;6200315;23;20044;-81
2021/05/29 13:59:37;;;;;;;6.17;3.30;;;31.10;34.60;;;;;;6199086;23;20037;-81
2021/05/29 14:02:05;;;;;;;5.53;3.10;;;30.90;34.50;;;;;;6198643;23;20270;-81
2021/05/29 14:04:32;;;;;;;6.80;3.20;;;30.10;35.40;;;;;;6199503;23;20267;-82
2021/05/29 14:07:00;;;;;;;9.00;3.72;;;29.10;37.00;;;;;;6199632;23;20048;-83
2021/05/29 14:09:27;;;;;;;6.13;3.53;;;27.30;38.40;;;;;;6199658;23;20064;-81
2021/05/29 14:11:57;;;;;;;6.95;3.00;;;27.30;39.40;;;;;;6199873;23;20041;-82
2021/05/29 14:14:24;;;;;;;6.50;3.22;;;28.70;37.60;;;;;;6199782;23;20036;-79
2021/05/29 14:16:51;;;;;;;5.53;2.72;;;30.00;36.30;;;;;;6199457;23;20036;-79
2021/05/29 14:19:19;;;;;;;6.47;3.05;;;30.60;34.70;;;;;;6199999;23;20040;-78
2021/05/29 14:21:48;;;;;;;;;;;29.70;34.90;;;;;;6199274;23;20037;-77
2021/05/29 14:24:15;;;;;;;5.53;3.45;;;29.00;36.40;;;;;;6198012;23;19975;-78
2021/05/29 14:26:45;;;;;;;5.97;3.53;;;29.70;36.20;;;;;;6200291;23;20349;-80
2021/05/29 14:29:12;;;;;;;6.00;3.15;;;30.30;36.20;;;;;;6174852;23;20052;-82
2021/05/29 14:31:40;;;;;;;5.82;3.03;;;30.40;35.60;;;;;;6175425;23;20045;-79
2021/05/29 14:34:09;;;;;;;6.00;2.72;;;31.30;34.90;;;;;;6224690;23;20048;-78
2021/05/29 14:36:42;;;;;;;7.03;3.40;;;31.30;34.70;;;;;;6198472;23;20040;-78
2021/05/29 14:39:11;;;;;;;6.40;3.60;;;29.70;35.40;;;;;;6198556;23;20045;-80
2021/05/29 14:41:38;;;;;;;4.70;3.08;;;28.40;37.70;;;;;;6198494;23;20062;-81
2021/05/29 14:44:07;;;;;;;8.32;3.70;;;28.50;37.50;;;;;;6224827;23;20340;-80
2021/05/29 14:46:34;;;;;;;6.95;3.75;;;27.60;38.60;;;;;;6173880;23;20044;-80
2021/05/29 14:49:03;;;;;;;7.07;3.72;;;28.10;37.60;;;;;;6198844;23;20040;-80
2021/05/29 14:51:35;;;;;;;9.25;4.00;;;28.30;37.60;;;;;;6199528;23;20036;-80
2021/05/29 14:54:04;;;;;;;8.60;3.30;;;27.80;38.20;;;;;;6198896;23;20060;-79
2021/05/29 14:56:34;;;;;;;5.97;4.00;;;28.30;38.10;;;;;;6173997;23;20044;-79
2021/05/29 14:59:01;;;;;;;5.43;3.10;;;28.80;36.50;;;;;;6175076;23;20037;-79
2021/05/29 15:01:32;;;;;;;5.68;3.03;;;29.40;36.70;;;;;;6225059;23;20040;-79
2021/05/29 15:04:00;;;;;;;6.28;2.90;;;30.00;35.80;;;;;;6174205;23;20041;-79
2021/05/29 15:06:27;;;;;;;3.97;2.75;;;30.40;34.90;;;;;;6225340;23;20048;-80
2021/05/29 15:08:55;;;;;;;7.72;3.42;;;30.80;34.80;;;;;;6173082;23;20045;-79
2021/05/29 15:11:25;;;;;;;8.13;3.20;;;31.60;35.00;;;;;;6198917;23;20036;-79
2021/05/29 15:13:56;;;;;;;6.07;3.13;;;32.00;33.60;;;;;;6150355;23;20044;-79
2021/05/29 15:16:25;;;;;;;7.68;2.72;;;32.10;34.20;;;;;;6174042;23;20040;-79
2021/05/29 15:18:56;;;;;;;5.20;3.22;;;32.30;33.70;;;;;;6196830;23;20044;-80
2021/05/29 15:21:24;;;;;;;5.72;2.83;;;32.50;33.10;;;;;;6173180;23;20040;-79
2021/05/29 15:23:55;;;;;;;4.70;2.63;;;32.40;33.00;;;;;;6198026;23;20044;-80
2021/05/29 15:26:27;;;;;;;4.85;2.40;;;32.20;33.00;;;;;;6198816;23;20041;-79
2021/05/29 15:28:55;;;;;;;7.75;2.55;;;31.70;33.90;;;;;;6223948;23;20040;-79
2021/05/29 15:31:25;;;;;;;4.68;2.42;;;31.90;33.70;;;;;;6174088;23;20044;-79
2021/05/29 15:33:55;;;;;;;8.75;2.92;;;31.90;33.40;;;;;;6225515;23;20004;-79
2021/05/29 15:36:22;;;;;;;5.75;3.00;;;31.50;34.50;;;;;;6225621;23;20016;-80
2021/05/29 15:38:49;;;;;;;4.47;2.70;;;30.20;34.80;;;;;;6198905;23;20036;-81
2021/05/29 15:41:17;;;;;;;7.07;3.10;;;29.20;36.40;;;;;;6199453;23;20051;-78
2021/05/29 15:43:44;;;;;;;8.32;3.67;;;29.10;36.60;;;;;;6173751;23;20041;-79
2021/05/29 15:46:12;;;;;;;6.77;2.93;;;28.90;36.80;;;;;;6198450;23;20040;-80
2021/05/29 15:48:40;;;;;;;5.22;2.70;;;29.10;37.00;;;;;;6208128;23;20243;-79
2021/05/29 15:51:10;;;;;;;5.07;2.47;;;29.30;36.50;;;;;;6200333;23;20036;-80
2021/05/29 15:53:40;;;;;;;5.07;2.50;;;30.00;36.10;;;;;;6198309;23;20041;-79
2021/05/29 15:56:11;;;;;;;4.97;3.00;;;30.00;34.80;;;;;;6199249;23;20307;-79
2021/05/29 15:58:39;;;;;;;4.53;2.42;;;29.50;35.00;;;;;;6173925;23;20044;-79
2021/05/29 16:01:07;;;;;;;7.20;2.92;;;29.20;35.80;;;;;;6174429;23;20040;-79
2021/05/29 16:03:36;;;;;;;;;;;28.90;36.50;;;;;;6199113;23;20053;-79
2021/05/29 16:06:05;;;;;;;6.03;2.88;;;29.50;35.90;;;;;;6174199;23;19959;-80
2021/05/29 16:08:33;;;;;;;8.38;2.80;;;30.00;35.70;;;;;;6175016;23;20348;-81
2021/05/29 16:11:01;;;;;;;4.93;3.35;;;30.20;35.20;;;;;;6225801;23;20255;-79
2021/05/29 16:13:28;;;;;;;5.43;3.27;;;30.30;35.10;;;;;;6200091;23;20049;-79
2021/05/29 16:15:56;;;;;;;6.50;3.30;;;30.60;35.10;;;;;;6226612;23;20009;-78
2021/05/29 16:18:24;;;;;;;8.63;3.10;;;30.70;34.50;;;;;;6200683;23;20037;-80
2021/05/29 16:20:56;;;;;;;9.00;3.78;;;30.70;34.60;;;;;;6202891;23;20052;-79
2021/05/29 16:23:25;;;;;;;6.68;3.50;;;30.40;35.30;;;;;;6201206;23;20012;-80
2021/05/29 16:25:54;;;;;;;5.95;3.10;;;30.40;35.10;;;;;;6201078;23;20036;-79
2021/05/29 16:28:27;;;;;;;6.25;3.05;;;30.30;35.10;;;;;;6230008;23;20012;-78
2021/05/29 16:30:58;;;;;;;7.25;3.50;;;30.40;34.80;;;;;;6185075;23;20248;-78
2021/05/29 16:33:30;;;;;;;7.57;3.30;;;30.40;34.80;;;;;;6179781;23;20012;-80
2021/05/29 16:36:11;;;;;;;6.50;3.47;;;30.20;35.00;;;;;;6234002;23;20016;-78
2021/05/29 16:38:46;;;;;;;7.10;3.78;;;29.80;35.50;;;;;;6209727;23;20008;-79
2021/05/29 16:41:20;;;;;;;6.78;3.55;;;28.80;35.70;;;;;;6231498;23;20027;-81
2021/05/29 16:47:28;;;;;;;9.40;5.30;;;25.10;41.20;;;;;;6179534;23;20040;-81
2021/05/29 16:50:07;;;;;;;8.10;3.53;;;24.30;43.10;;;;;;6182565;23;20009;-78
2021/05/29 16:52:44;;;;;;;8.20;3.88;;;24.10;43.70;;;;;;6153451;23;20027;-79
2021/05/29 16:55:22;;;;;;;10.20;4.18;;;24.50;43.30;;;;;;6175404;23;20037;-80
2021/05/29 16:57:50;;;;;;;7.70;3.95;;;24.80;42.60;;;;;;6231155;23;20015;-77
2021/05/29 17:00:39;;;;;;;5.93;3.65;;;24.40;42.80;;;;;;6233501;23;20005;-78
2021/05/29 17:03:08;;;;;;;6.20;3.92;;;24.40;42.60;;;;;;6231186;23;20372;-78
2021/05/29 17:05:35;;;;;;;9.52;3.50;;;24.60;42.70;;;;;;6160695;23;20004;-78
2021/05/29 17:08:07;;;;;;;6.88;3.50;;;24.30;43.30;;;;;;6178561;23;20000;-77
2021/05/29 17:10:34;;;;;;;8.00;3.83;;;23.70;44.60;;;;;;6178998;23;20005;-77
2021/05/29 17:13:04;;;;;;;7.13;3.42;;;24.00;44.00;;;;;;6227735;23;20024;-75
2021/05/29 17:15:34;;;;;;;9.95;3.78;;;24.00;43.60;;;;;;6177886;23;20013;-76
2021/05/29 17:18:07;;;;;;;7.63;3.97;;;23.40;45.20;;;;;;6206902;23;20013;-78
2021/05/29 17:20:35;;;;;;;;;;;22.90;46.50;;;;;;6203497;23;20080;-76
2021/05/29 17:23:04;;;;;;;5.68;3.47;;;22.10;48.40;;;;;;6204624;23;19932;-77
2021/05/29 17:25:32;;;;;;;7.28;3.90;;;21.40;49.70;;;;;;6207495;23;20011;-77
2021/05/29 17:28:03;;;;;;;9.35;4.45;;;21.00;50.90;;;;;;6182866;23;20001;-80
2021/05/29 17:30:34;;;;;;;10.00;4.10;;;20.80;51.50;;;;;;6205310;23;20019;-79
2021/05/29 17:33:02;;;;;;;10.63;4.30;;;20.60;51.90;;;;;;6179723;23;20014;-79
2021/05/29 17:35:35;;;;;;;8.25;4.10;;;20.40;52.60;;;;;;6206302;23;20004;-78
2021/05/29 17:38:04;;;;;;;6.10;3.83;;;20.20;52.40;;;;;;6181763;23;20007;-80
2021/05/29 17:40:32;;;;;;;7.22;3.95;;;20.00;52.40;;;;;;6204801;23;20045;-79
2021/05/29 17:43:00;;;;;;;7.78;3.60;;;19.70;53.20;;;;;;6184183;23;20043;-80
2021/05/29 17:45:29;;;;;;;6.93;4.10;;;19.40;54.40;;;;;;6182852;23;20205;-80
2021/05/29 17:47:56;;;;;;;10.05;4.82;;;19.10;55.30;;;;;;6208737;23;20008;-79
2021/05/29 17:50:27;;;;;;;6.95;4.30;;;18.80;56.50;;;;;;6233108;23;20016;-81
2021/05/29 17:52:58;;;;;;;8.85;4.10;;;18.60;57.00;;;;;;6184760;23;20008;-79
2021/05/29 17:55:27;;;;;;;7.82;4.63;;;18.40;57.90;;;;;;6181448;23;20015;-79
2021/05/29 17:58:03;;;;;;;8.15;4.10;;;18.20;58.50;;;;;;6176779;23;20032;-78
2021/05/29 18:00:31;;;;;;;8.43;4.18;;;18.00;59.40;;;;;;6202388;23;20044;-76
2021/05/29 18:02:59;;;;;;;7.75;4.25;;;17.90;60.40;;;;;;6229992;23;20040;-76
2021/05/29 18:05:27;;;;;;;6.68;4.50;;;17.70;60.60;;;;;;6235496;23;20008;-78
2021/05/29 18:07:57;;;;;;;8.43;4.55;;;17.50;62.30;;;;;;6181934;23;20360;-82
2021/05/29 18:10:25;;;;;;;7.82;4.80;;;17.50;63.40;;;;;;6217198;23;20016;-81
2021/05/29 18:12:55;;;;;;;6.80;4.00;;;17.50;63.50;;;;;;6179399;23;20020;-82
2021/05/29 18:15:24;;;;;;;8.02;4.35;;;17.40;64.50;;;;;;6152820;23;20282;-82
2021/05/29 18:17:51;;;;;;;10.23;5.03;;;17.30;65.60;;;;;;6228463;23;20017;-83
2021/05/29 18:20:22;;;;;;;8.85;5.03;;;17.20;66.80;;;;;;6201245;23;20259;-84
2021/05/29 18:22:51;;;;;;;8.50;4.45;;;17.10;68.80;;;;;;6205572;23;20009;-80
2021/05/29 18:25:19;;;;;;;8.27;4.55;;;16.90;71.00;;;;;;6176086;23;20041;-80
2021/05/29 18:27:46;;;;;;;7.00;4.22;;;16.80;73.60;;;;;;6175387;23;20040;-81
2021/05/29 18:30:16;;;;;;;8.05;4.45;;;16.70;75.50;;;;;;6201547;23;20040;-82
2021/05/29 18:32:44;;;;;;;10.25;4.88;;;16.60;77.80;;;;;;6201227;23;20064;-82
2021/05/29 18:35:14;;;;;;;9.68;4.55;;;16.60;79.40;;;;;;6201186;23;20368;-82
2021/05/29 18:40:25;;;;;;;7.13;4.50;;;16.30;84.60;;;;;;6201014;23;20052;-76
2021/05/29 18:42:54;;;;;;;7.60;4.50;;;16.30;86.00;;;;;;6175500;23;20045;-81
2021/05/29 18:45:22;;;;;;;7.57;4.38;;;16.20;88.50;;;;;;6203053;23;20048;-81
2021/05/29 18:47:52;;;;;;;7.72;4.45;;;16.10;90.10;;;;;;6208667;23;20016;-81
2021/05/29 18:50:20;;;;;;;9.10;4.43;;;16.10;90.60;;;;;;6210284;23;20020;-83
2021/05/29 18:52:49;;;;;;;10.70;4.78;;;16.00;91.80;;;;;;6184924;23;20012;-81
2021/05/29 18:55:16;;;;;;;6.25;4.07;;;15.90;91.70;;;;;;6186250;23;20024;-85
2021/05/29 18:57:53;;;;;;;8.00;4.40;;;15.80;92.80;;;;;;6179281;23;20252;-83
2021/05/29 19:03:14;;;;;;;7.35;4.28;;;15.70;93.90;;;;;;6200981;23;20029;-79
2021/05/29 19:05:59;;;;;;;7.88;4.20;;;15.60;94.70;;;;;;6153783;23;20036;-79
2021/05/29 19:11:12;;;;;;;12.32;5.93;;;15.60;95.30;;;;;;6177606;23;20008;-78
2021/05/29 19:13:40;;;;;;;9.13;5.05;;;15.50;95.90;;;;;;6200457;23;20041;-78
2021/05/29 19:16:08;;;;;;;10.57;4.95;;;15.40;96.30;;;;;;6177793;23;20241;-79
2021/05/29 19:18:35;;;;;;;9.85;4.45;;;15.40;96.70;;;;;;6179813;23;20008;-77
2021/05/29 19:21:06;;;;;;;8.77;4.80;;;15.20;97.50;;;;;;6202511;23;20363;-78
2021/05/29 19:23:38;;;;;;;9.95;4.68;;;15.30;97.80;;;;;;6225598;23;20046;-77
2021/05/29 19:29:00;;;;;;;9.32;4.88;;;15.10;99.00;;;;;;6184623;23;20057;-78
2021/05/29 19:31:38;;;;;;;8.15;4.18;;;15.10;99.50;;;;;;6201960;23;20037;-82
2021/05/29 19:39:43;;;;;;;9.75;4.95;;;14.90;99.90;;;;;;6202876;23;20055;-84
2021/05/29 19:42:10;;;;;;;7.00;4.55;;;14.80;99.90;;;;;;6180479;23;20008;-85
2021/05/29 19:44:50;;;;;;;10.82;4.60;;;14.80;99.90;;;;;;6229864;23;20044;-85
2021/05/29 19:47:53;;;;;;;8.20;4.90;;;14.70;99.90;;;;;;6207496;23;20023;-83
2021/05/29 20:04:56;;;;;;;9.30;5.63;;;14.30;99.90;;;;;;6183851;23;20016;-87
2021/05/29 20:13:24;;;;;;;10.77;5.25;;;14.00;99.90;;;;;;6183239;23;20012;-86
2021/05/29 20:16:13;;;;;;;10.10;5.47;;;14.00;99.90;;;;;;6186263;23;20012;-86
2021/05/29 20:24:50;;;;;;;11.23;5.78;;;13.90;99.90;;;;;;6172528;23;20008;-89
2021/05/29 20:27:22;;;;;;;11.63;6.33;;;14.00;99.90;;;;;;6177575;23;20267;-87
2021/05/29 20:29:50;;;;;;;9.30;5.45;;;14.00;99.90;;;;;;6211729;23;20008;-86
2021/05/29 20:32:20;;;;;;;11.10;5.95;;;13.90;99.90;;;;;;6187341;23;20004;-87
2021/05/29 20:35:12;;;;;;;11.10;6.47;;;13.80;99.90;;;;;;6209418;23;20012;-85
2021/05/29 20:37:46;;;;;;;9.70;6.03;;;13.80;99.90;;;;;;6187182;23;20013;-87
2021/05/29 20:40:19;;;;;;;14.38;5.72;;;13.80;99.90;;;;;;6216039;23;20016;-86
2021/05/29 20:42:54;;;;;;;9.00;5.85;;;13.80;99.90;;;;;;6244745;23;20008;-87
2021/05/29 20:45:30;;;;;;;11.30;6.28;;;13.70;99.90;;;;;;6193152;23;20004;-87
2021/05/29 20:48:06;;;;;;;11.60;5.78;;;13.60;99.90;;;;;;6188821;23;20019;-87
2021/05/29 20:50:33;;;;;;;8.98;6.20;;;13.70;99.90;;;;;;6214390;23;20008;-87
2021/05/29 20:53:13;;;;;;;11.93;6.10;;;13.70;99.90;;;;;;6236266;23;20004;-86
2021/05/29 20:55:41;;;;;;;10.98;6.53;;;13.70;99.90;;;;;;6211855;23;20012;-86
2021/05/29 20:58:16;;;;;;;10.07;5.90;;;13.70;99.90;;;;;;6236343;23;20004;-86
2021/05/29 21:00:44;;;;;;;9.25;5.75;;;13.60;99.90;;;;;;6209426;23;20012;-87
2021/05/29 21:03:19;;;;;;;12.48;6.78;;;13.50;99.90;;;;;;6212131;23;20012;-87
2021/05/29 21:05:48;;;;;;;14.50;6.63;;;13.40;99.90;;;;;;6188625;23;20017;-85
2021/05/29 21:08:22;;;;;;;15.02;6.53;;;13.40;99.90;;;;;;6163263;23;20013;-87
2021/05/29 21:10:52;;;;;;;12.55;5.95;;;13.30;99.90;;;;;;6231385;23;20019;-86
2021/05/29 21:13:47;;;;;;;10.55;5.95;;;13.30;99.90;;;;;;6121556;23;20014;-79
